createdAt,value
2019-03-17T00:00:11.524Z,63.10
2019-03-17T00:02:40.919Z,63.10
2019-03-17T00:05:10.282Z,63.10
2019-03-17T00:07:39.696Z,63.40
2019-03-17T00:10:09.203Z,63.60
2019-03-17T00:12:38.629Z,63.90
2019-03-17T00:15:08.017Z,64.10
2019-03-17T00:17:37.748Z,64.50
2019-03-17T00:20:07.271Z,64.70
2019-03-17T00:22:36.647Z,64.90
2019-03-17T00:25:09.558Z,65.20
2019-03-17T00:27:37.075Z,65.40
2019-03-17T00:30:07.044Z,65.50
2019-03-17T00:32:36.416Z,65.70
2019-03-17T00:35:06.203Z,65.70
2019-03-17T00:37:35.580Z,66.00
2019-03-17T00:40:05.584Z,66.20
2019-03-17T00:42:34.986Z,66.40
2019-03-17T00:45:04.555Z,66.60
2019-03-17T00:47:34.121Z,66.80
2019-03-17T00:50:03.555Z,67.10
2019-03-17T00:52:32.887Z,67.30
2019-03-17T00:55:02.302Z,67.40
2019-03-17T00:57:31.647Z,67.70
2019-03-17T01:00:01.049Z,67.80
2019-03-17T01:02:30.415Z,67.90
2019-03-17T01:04:59.826Z,67.90
2019-03-17T01:07:29.219Z,67.90
2019-03-17T01:09:58.622Z,67.90
2019-03-17T01:12:27.992Z,67.90
2019-03-17T01:14:57.487Z,68.10
2019-03-17T01:17:26.868Z,68.00
2019-03-17T01:19:56.234Z,68.10
2019-03-17T01:22:25.640Z,68.10
2019-03-17T01:24:55.008Z,68.00
2019-03-17T01:27:24.422Z,68.00
2019-03-17T01:29:53.806Z,68.20
2019-03-17T01:32:23.214Z,68.10
2019-03-17T01:34:52.589Z,68.00
2019-03-17T01:37:21.971Z,68.00
2019-03-17T01:39:51.361Z,67.90
2019-03-17T01:42:20.751Z,67.70
2019-03-17T01:44:50.160Z,67.80
2019-03-17T01:47:19.520Z,67.70
2019-03-17T01:49:48.960Z,67.90
2019-03-17T01:52:18.327Z,67.90
2019-03-17T01:54:47.633Z,67.80
2019-03-17T01:57:17.039Z,67.80
2019-03-17T01:59:46.339Z,67.80
2019-03-17T02:02:15.752Z,67.70
2019-03-17T02:04:45.152Z,67.80
2019-03-17T02:07:14.555Z,67.80
2019-03-17T02:09:43.927Z,67.90
2019-03-17T02:12:13.307Z,67.90
2019-03-17T02:14:42.715Z,67.90
2019-03-17T02:17:12.099Z,67.90
2019-03-17T02:19:41.497Z,68.10
2019-03-17T02:22:10.875Z,68.20
2019-03-17T02:24:40.299Z,68.20
2019-03-17T02:27:09.683Z,68.00
2019-03-17T02:29:39.056Z,67.60
2019-03-17T02:32:08.452Z,67.30
2019-03-17T02:34:37.858Z,67.10
2019-03-17T02:37:07.253Z,66.80
2019-03-17T02:39:36.655Z,66.40
2019-03-17T02:42:06.079Z,66.10
2019-03-17T02:44:35.458Z,66.10
2019-03-17T02:47:04.857Z,66.10
2019-03-17T02:49:34.331Z,66.20
2019-03-17T02:52:03.709Z,66.30
2019-03-17T02:54:33.095Z,66.20
2019-03-17T02:57:02.465Z,66.40
2019-03-17T02:59:31.867Z,66.40
2019-03-17T03:02:01.248Z,66.30
2019-03-17T03:04:30.753Z,66.40
2019-03-17T03:07:00.219Z,66.30
2019-03-17T03:09:29.606Z,66.20
2019-03-17T03:11:59.000Z,66.30
2019-03-17T03:14:28.373Z,66.30
2019-03-17T03:16:57.770Z,66.30
2019-03-17T03:19:27.136Z,66.10
2019-03-17T03:21:56.556Z,66.20
2019-03-17T03:24:25.941Z,66.20
2019-03-17T03:26:55.316Z,66.20
2019-03-17T03:29:27.298Z,66.00
2019-03-17T03:31:55.743Z,65.80
2019-03-17T03:34:25.160Z,65.60
2019-03-17T03:36:54.531Z,65.50
2019-03-17T03:39:23.963Z,65.50
2019-03-17T03:41:53.355Z,65.60
2019-03-17T03:44:22.729Z,65.60
2019-03-17T03:46:52.163Z,65.70
2019-03-17T03:49:21.679Z,65.90
2019-03-17T03:51:51.092Z,65.90
2019-03-17T03:54:20.464Z,66.10
2019-03-17T03:56:49.853Z,65.90
2019-03-17T03:59:19.228Z,65.70
2019-03-17T04:01:48.703Z,65.70
2019-03-17T04:04:18.141Z,65.40
2019-03-17T04:06:47.528Z,65.30
2019-03-17T04:09:16.931Z,65.00
2019-03-17T04:11:46.291Z,65.00
2019-03-17T04:14:15.615Z,65.20
2019-03-17T04:16:44.998Z,65.20
2019-03-17T04:19:14.396Z,65.00
2019-03-17T04:21:43.776Z,64.90
2019-03-17T04:24:13.181Z,64.50
2019-03-17T04:26:42.595Z,64.20
2019-03-17T04:29:12.016Z,63.70
2019-03-17T04:31:41.388Z,63.60
2019-03-17T04:34:10.764Z,63.20
2019-03-17T04:36:40.833Z,62.90
2019-03-17T04:39:10.267Z,62.70
2019-03-17T04:41:39.678Z,62.50
2019-03-17T04:44:20.368Z,62.10
2019-03-17T04:46:40.106Z,61.90
2019-03-17T04:49:09.480Z,61.60
2019-03-17T04:51:38.935Z,61.30
2019-03-17T04:54:08.327Z,61.00
2019-03-17T04:56:37.700Z,60.90
2019-03-17T04:59:07.131Z,60.90
2019-03-17T05:01:36.513Z,61.00
2019-03-17T05:04:05.924Z,60.80
2019-03-17T05:06:35.312Z,60.70
2019-03-17T05:09:05.781Z,60.60
2019-03-17T05:11:35.165Z,60.50
2019-03-17T05:14:04.658Z,60.30
2019-03-17T05:16:35.810Z,60.10
2019-03-17T05:19:05.071Z,60.00
2019-03-17T05:21:34.462Z,59.90
2019-03-17T05:24:03.840Z,59.90
2019-03-17T05:26:33.233Z,59.80
2019-03-17T05:29:02.616Z,59.80
2019-03-17T05:31:32.006Z,59.70
2019-03-17T05:34:01.387Z,59.70
2019-03-17T05:36:30.752Z,59.60
2019-03-17T05:39:00.176Z,59.50
2019-03-17T05:41:29.551Z,59.80
2019-03-17T05:43:58.943Z,59.00
2019-03-17T05:46:28.315Z,58.70
2019-03-17T05:48:57.652Z,58.50
2019-03-17T05:51:27.391Z,58.10
2019-03-17T05:53:56.781Z,57.70
2019-03-17T05:56:26.163Z,57.40
2019-03-17T05:58:55.573Z,57.10
2019-03-17T06:01:24.940Z,56.90
2019-03-17T06:03:54.347Z,56.70
2019-03-17T06:06:23.643Z,56.50
2019-03-17T06:08:53.179Z,56.00
2019-03-17T06:11:22.535Z,55.50
2019-03-17T06:13:51.928Z,54.80
2019-03-17T06:16:21.310Z,54.50
2019-03-17T06:18:50.684Z,54.00
2019-03-17T06:21:20.100Z,53.60
2019-03-17T06:23:49.488Z,53.30
2019-03-17T06:26:18.881Z,53.00
2019-03-17T06:28:48.254Z,52.50
2019-03-17T06:31:17.671Z,51.60
2019-03-17T06:33:47.064Z,50.70
2019-03-17T06:36:16.435Z,50.50
2019-03-17T06:38:45.840Z,50.20
2019-03-17T06:41:15.247Z,49.70
2019-03-17T06:43:44.640Z,49.40
2019-03-17T06:46:14.044Z,48.90
2019-03-17T06:48:43.479Z,47.50
2019-03-17T06:51:12.900Z,47.50
2019-03-17T06:53:42.335Z,47.00
2019-03-17T06:56:11.715Z,46.40
2019-03-17T06:58:41.120Z,46.00
2019-03-17T07:01:10.496Z,45.40
2019-03-17T07:03:39.876Z,44.90
2019-03-17T07:06:09.303Z,44.70
2019-03-17T07:08:38.678Z,43.60
2019-03-17T07:11:10.890Z,43.10
2019-03-17T07:13:39.236Z,42.70
2019-03-17T07:16:08.634Z,42.30
2019-03-17T07:18:38.005Z,41.70
2019-03-17T07:21:07.432Z,40.70
2019-03-17T07:23:36.827Z,40.40
2019-03-17T07:26:06.195Z,39.40
2019-03-17T07:28:35.610Z,39.20
2019-03-17T07:31:04.987Z,38.50
2019-03-17T07:33:34.405Z,38.20
2019-03-17T07:36:03.797Z,37.80
2019-03-17T07:38:33.183Z,37.70
2019-03-17T07:41:02.567Z,37.10
2019-03-17T07:43:31.979Z,37.20
2019-03-17T07:46:01.360Z,37.30
2019-03-17T07:48:30.740Z,37.50
2019-03-17T07:51:00.217Z,37.20
2019-03-17T07:53:29.627Z,36.90
2019-03-17T07:55:59.038Z,36.90
2019-03-17T07:58:28.422Z,36.50
2019-03-17T08:00:57.869Z,35.80
2019-03-17T08:03:27.526Z,35.50
2019-03-17T08:05:56.951Z,36.00
2019-03-17T08:08:26.402Z,35.80
2019-03-17T08:10:55.959Z,35.90
2019-03-17T08:13:25.382Z,35.80
2019-03-17T08:15:54.752Z,36.10
2019-03-17T08:18:24.169Z,35.60
2019-03-17T08:20:53.611Z,35.50
2019-03-17T08:23:22.996Z,35.20
2019-03-17T08:25:52.383Z,35.10
2019-03-17T08:28:21.828Z,34.90
2019-03-17T08:30:53.333Z,33.90
2019-03-17T08:33:22.243Z,33.70
2019-03-17T08:35:51.630Z,33.30
2019-03-17T08:38:22.396Z,33.20
2019-03-17T08:40:51.867Z,33.30
2019-03-17T08:43:21.260Z,33.50
2019-03-17T08:45:50.639Z,32.20
2019-03-17T08:48:19.947Z,32.20
2019-03-17T08:50:49.284Z,32.00
2019-03-17T08:53:18.758Z,31.50
2019-03-17T08:55:48.164Z,31.70
2019-03-17T08:58:17.547Z,31.30
2019-03-17T09:00:46.937Z,31.40
2019-03-17T09:03:16.306Z,31.80
2019-03-17T09:05:45.738Z,31.60
2019-03-17T09:08:15.126Z,31.70
2019-03-17T09:10:44.521Z,31.70
2019-03-17T09:13:13.907Z,31.60
2019-03-17T09:15:43.376Z,32.00
2019-03-17T09:18:12.815Z,31.40
2019-03-17T09:20:42.246Z,31.30
2019-03-17T09:23:11.615Z,31.20
2019-03-17T09:25:41.043Z,31.20
2019-03-17T09:28:10.455Z,31.50
2019-03-17T09:30:39.879Z,31.00
2019-03-17T09:33:09.263Z,30.70
2019-03-17T09:35:38.643Z,30.20
2019-03-17T09:38:08.052Z,29.80
2019-03-17T09:40:37.443Z,29.80
2019-03-17T09:43:06.867Z,29.80
2019-03-17T09:45:36.238Z,30.10
2019-03-17T09:48:05.628Z,30.40
2019-03-17T09:50:35.066Z,30.10
2019-03-17T09:53:04.507Z,30.60
2019-03-17T09:55:33.916Z,30.70
2019-03-17T09:58:03.280Z,30.80
2019-03-17T10:00:32.678Z,30.90
2019-03-17T10:03:01.984Z,31.10
2019-03-17T10:05:31.372Z,31.00
2019-03-17T10:08:00.784Z,31.10
2019-03-17T10:10:30.186Z,30.90
2019-03-17T10:12:59.591Z,30.30
2019-03-17T10:15:28.968Z,30.20
2019-03-17T10:17:58.470Z,29.80
2019-03-17T10:20:27.856Z,29.60
2019-03-17T10:22:57.257Z,29.20
2019-03-17T10:25:26.650Z,28.80
2019-03-17T10:27:56.051Z,28.60
2019-03-17T10:30:25.462Z,28.90
2019-03-17T10:32:54.837Z,28.70
2019-03-17T10:35:24.259Z,28.70
2019-03-17T10:37:53.641Z,28.70
2019-03-17T10:40:23.117Z,28.60
2019-03-17T10:42:52.455Z,28.50
2019-03-17T10:45:21.865Z,28.20
2019-03-17T10:47:54.254Z,27.80
2019-03-17T10:50:22.300Z,27.90
2019-03-17T10:52:51.719Z,28.10
2019-03-17T10:55:21.169Z,27.80
2019-03-17T10:57:50.777Z,27.60
2019-03-17T11:00:20.400Z,27.60
2019-03-17T11:02:49.786Z,27.80
2019-03-17T11:05:19.207Z,28.00
2019-03-17T11:07:48.600Z,28.30
2019-03-17T11:10:18.113Z,28.20
2019-03-17T11:12:47.507Z,28.20
2019-03-17T11:15:16.959Z,28.20
2019-03-17T11:17:46.344Z,28.30
2019-03-17T11:20:16.295Z,28.20
2019-03-17T11:22:45.691Z,27.90
2019-03-17T11:25:15.118Z,27.90
2019-03-17T11:27:44.553Z,28.10
2019-03-17T11:30:13.964Z,28.40
2019-03-17T11:32:43.393Z,28.40
2019-03-17T11:35:12.876Z,28.80
2019-03-17T11:37:42.287Z,29.10
2019-03-17T11:40:12.583Z,29.50
2019-03-17T11:42:42.030Z,30.00
2019-03-17T11:45:12.661Z,30.20
2019-03-17T11:47:42.039Z,30.40
2019-03-17T11:50:12.335Z,30.30
2019-03-17T11:52:41.808Z,30.50
2019-03-17T11:55:11.483Z,30.70
2019-03-17T11:57:41.045Z,30.80
2019-03-17T12:00:12.288Z,30.80
2019-03-17T12:02:41.614Z,30.70
2019-03-17T12:05:11.044Z,31.00
2019-03-17T12:07:40.419Z,31.10
2019-03-17T12:10:11.515Z,31.40
2019-03-17T12:12:40.920Z,31.40
2019-03-17T12:15:12.195Z,31.40
2019-03-17T12:17:41.604Z,31.10
2019-03-17T12:20:11.473Z,31.20
2019-03-17T12:22:40.895Z,31.10
2019-03-17T12:25:11.752Z,31.10
2019-03-17T12:27:41.178Z,30.60
2019-03-17T12:30:16.976Z,30.20
2019-03-17T12:32:46.343Z,30.20
2019-03-17T12:35:15.758Z,30.30
2019-03-17T12:37:45.162Z,30.30
2019-03-17T12:40:14.568Z,30.30
2019-03-17T12:42:43.951Z,30.30
2019-03-17T12:45:13.386Z,30.40
2019-03-17T12:47:42.790Z,30.40
2019-03-17T12:50:12.795Z,30.40
2019-03-17T12:52:42.239Z,30.60
2019-03-17T12:55:11.680Z,30.80
2019-03-17T12:57:41.123Z,31.10
2019-03-17T13:00:12.994Z,30.90
2019-03-17T13:02:42.422Z,31.00
2019-03-17T13:05:12.130Z,31.30
2019-03-17T13:07:41.533Z,31.50
2019-03-17T13:10:15.972Z,31.30
2019-03-17T13:12:43.896Z,31.30
2019-03-17T13:15:13.411Z,30.90
2019-03-17T13:17:42.719Z,31.20
2019-03-17T13:20:12.910Z,31.40
2019-03-17T13:22:42.354Z,31.40
2019-03-17T13:25:11.933Z,31.40
2019-03-17T13:27:41.323Z,31.40
2019-03-17T13:30:11.611Z,31.70
2019-03-17T13:32:41.023Z,32.00
2019-03-17T13:35:10.532Z,32.10
2019-03-17T13:37:39.940Z,32.00
2019-03-17T13:40:10.899Z,32.60
2019-03-17T13:42:40.405Z,32.90
2019-03-17T13:45:10.591Z,33.20
2019-03-17T13:47:40.012Z,33.40
2019-03-17T13:50:11.396Z,33.50
2019-03-17T13:52:40.866Z,33.60
2019-03-17T13:55:10.266Z,33.90
2019-03-17T13:57:39.635Z,34.10
2019-03-17T14:00:11.752Z,34.20
2019-03-17T14:02:41.147Z,34.60
2019-03-17T14:05:10.584Z,34.60
2019-03-17T14:07:39.983Z,34.60
2019-03-17T14:10:14.040Z,34.80
2019-03-17T14:12:43.075Z,35.00
2019-03-17T14:15:13.379Z,35.20
2019-03-17T14:17:42.792Z,35.60
2019-03-17T14:20:16.891Z,35.80
2019-03-17T14:22:46.281Z,36.10
2019-03-17T14:25:18.079Z,36.30
2019-03-17T14:27:47.452Z,36.50
2019-03-17T14:30:16.980Z,36.60
2019-03-17T14:32:46.360Z,36.70
2019-03-17T14:35:15.758Z,36.90
2019-03-17T14:37:45.144Z,37.10
2019-03-17T14:40:14.680Z,37.10
2019-03-17T14:42:44.276Z,37.30
2019-03-17T14:45:14.681Z,37.40
2019-03-17T14:47:44.111Z,37.30
2019-03-17T14:50:15.328Z,37.50
2019-03-17T14:52:44.759Z,37.80
2019-03-17T14:55:14.325Z,38.10
2019-03-17T14:57:43.817Z,38.20
2019-03-17T15:00:15.540Z,38.40
2019-03-17T15:02:45.027Z,38.50
2019-03-17T15:05:14.563Z,38.40
2019-03-17T15:07:43.939Z,38.70
2019-03-17T15:10:15.003Z,38.90
2019-03-17T15:12:44.391Z,39.20
2019-03-17T15:15:14.979Z,39.40
2019-03-17T15:17:44.366Z,39.60
2019-03-17T15:20:15.344Z,39.80
2019-03-17T15:22:44.783Z,39.80
2019-03-17T15:25:14.203Z,39.80
2019-03-17T15:27:43.608Z,39.90
2019-03-17T15:30:17.812Z,40.00
2019-03-17T15:32:47.258Z,40.10
2019-03-17T15:35:16.851Z,40.30
2019-03-17T15:37:46.252Z,40.50
2019-03-17T15:40:15.692Z,40.60
2019-03-17T15:42:45.104Z,40.70
2019-03-17T15:45:15.430Z,40.90
2019-03-17T15:47:44.823Z,41.10
2019-03-17T15:50:15.807Z,41.70
2019-03-17T15:52:45.198Z,44.60
2019-03-17T15:55:14.913Z,47.40
2019-03-17T15:57:44.451Z,49.50
2019-03-17T16:00:24.852Z,51.90
2019-03-17T16:02:49.979Z,53.50
2019-03-17T16:05:19.481Z,56.60
2019-03-17T16:07:48.882Z,59.80
2019-03-17T16:10:19.211Z,62.80
2019-03-17T16:12:48.630Z,63.90
2019-03-17T16:15:18.134Z,65.40
2019-03-17T16:17:47.553Z,66.80
2019-03-17T16:20:17.982Z,68.10
2019-03-17T16:22:47.404Z,69.50
2019-03-17T16:25:17.475Z,69.50
2019-03-17T16:27:47.151Z,68.20
2019-03-17T16:30:21.119Z,68.00
2019-03-17T16:32:50.510Z,68.40
2019-03-17T16:35:19.914Z,69.70
2019-03-17T16:37:49.330Z,70.40
2019-03-17T16:40:20.065Z,70.60
2019-03-17T16:42:49.479Z,70.80
2019-03-17T16:45:19.483Z,70.40
2019-03-17T16:47:48.913Z,70.60
2019-03-17T16:50:18.392Z,71.10
2019-03-17T16:52:47.793Z,71.50
2019-03-17T16:55:17.210Z,71.60
2019-03-17T16:57:46.703Z,71.70
2019-03-17T17:00:19.052Z,71.90
2019-03-17T17:02:48.839Z,72.30
2019-03-17T17:05:18.372Z,72.50
2019-03-17T17:07:47.844Z,73.00
2019-03-17T17:10:18.271Z,73.80
2019-03-17T17:12:47.636Z,74.10
2019-03-17T17:15:21.779Z,74.10
2019-03-17T17:17:51.187Z,74.90
2019-03-17T17:20:22.637Z,75.00
2019-03-17T17:22:52.070Z,75.00
2019-03-17T17:25:21.491Z,75.90
2019-03-17T17:27:50.918Z,76.90
2019-03-17T17:30:20.306Z,77.10
2019-03-17T17:32:49.751Z,77.60
2019-03-17T17:35:19.152Z,78.00
2019-03-17T17:37:48.571Z,78.80
2019-03-17T17:40:18.123Z,78.90
2019-03-17T17:42:47.508Z,79.10
2019-03-17T17:45:17.251Z,79.80
2019-03-17T17:47:46.616Z,80.00
2019-03-17T17:50:16.848Z,80.70
2019-03-17T17:52:46.228Z,81.00
2019-03-17T17:55:15.660Z,81.60
2019-03-17T17:57:45.074Z,81.60
2019-03-17T18:00:17.763Z,81.60
2019-03-17T18:02:47.214Z,81.70
2019-03-17T18:05:16.567Z,81.70
2019-03-17T18:07:45.935Z,82.30
2019-03-17T18:10:15.323Z,82.00
2019-03-17T18:12:44.773Z,82.30
2019-03-17T18:15:15.586Z,82.30
2019-03-17T18:17:44.892Z,82.60
2019-03-17T18:20:14.333Z,82.30
2019-03-17T18:22:43.711Z,82.10
2019-03-17T18:25:13.848Z,82.40
2019-03-17T18:27:43.240Z,82.30
2019-03-17T18:30:14.598Z,82.50
2019-03-17T18:32:43.998Z,82.80
2019-03-17T18:35:13.506Z,83.00
2019-03-17T18:37:42.919Z,82.60
2019-03-17T18:40:13.544Z,82.40
2019-03-17T18:42:42.963Z,82.30
2019-03-17T18:45:14.532Z,82.60
2019-03-17T18:47:44.889Z,82.90
2019-03-17T18:50:20.187Z,82.80
2019-03-17T18:52:45.714Z,82.60
2019-03-17T18:55:15.251Z,82.90
2019-03-17T18:57:44.764Z,83.30
2019-03-17T19:00:15.780Z,83.40
2019-03-17T19:02:45.196Z,83.90
2019-03-17T19:05:15.062Z,84.20
2019-03-17T19:07:44.441Z,84.10
2019-03-17T19:10:14.598Z,84.30
2019-03-17T19:12:45.842Z,84.70
2019-03-17T19:15:15.457Z,84.70
2019-03-17T19:17:44.816Z,85.40
2019-03-17T19:20:15.045Z,85.60
2019-03-17T19:22:44.451Z,85.80
2019-03-17T19:25:14.559Z,86.10
2019-03-17T19:27:43.964Z,86.30
2019-03-17T19:30:15.154Z,86.50
2019-03-17T19:32:44.629Z,86.80
2019-03-17T19:35:14.145Z,87.30
2019-03-17T19:37:43.522Z,87.10
2019-03-17T19:40:14.059Z,87.00
2019-03-17T19:42:43.485Z,87.30
2019-03-17T19:45:12.895Z,87.40
2019-03-17T19:47:42.298Z,87.70
2019-03-17T19:50:12.601Z,87.80
2019-03-17T19:52:42.043Z,88.10
2019-03-17T19:55:11.975Z,87.80
2019-03-17T19:57:41.496Z,88.00
2019-03-17T20:00:13.108Z,87.80
2019-03-17T20:02:42.559Z,88.00
2019-03-17T20:05:12.283Z,88.30
2019-03-17T20:07:41.668Z,88.10
2019-03-17T20:10:13.152Z,88.40
2019-03-17T20:12:42.558Z,88.20
2019-03-17T20:15:11.974Z,88.40
2019-03-17T20:17:41.399Z,88.50
2019-03-17T20:20:11.508Z,88.90
2019-03-17T20:22:40.923Z,88.90
2019-03-17T20:25:10.596Z,88.90
2019-03-17T20:27:39.981Z,88.70
2019-03-17T20:30:10.023Z,88.50
2019-03-17T20:32:39.437Z,88.50
2019-03-17T20:35:09.903Z,88.60
2019-03-17T20:37:39.305Z,88.70
2019-03-17T20:40:09.911Z,88.60
2019-03-17T20:42:39.318Z,88.40
2019-03-17T20:45:09.123Z,88.60
2019-03-17T20:47:38.548Z,88.50
2019-03-17T20:50:08.917Z,88.60
2019-03-17T20:52:38.301Z,88.20
2019-03-17T20:55:07.819Z,88.30
2019-03-17T20:57:37.229Z,88.30
2019-03-17T21:00:07.491Z,88.30
2019-03-17T21:02:36.879Z,88.20
2019-03-17T21:05:07.152Z,87.80
2019-03-17T21:07:36.856Z,87.70
2019-03-17T21:10:06.944Z,87.40
2019-03-17T21:12:36.452Z,87.60
2019-03-17T21:15:06.442Z,87.20
2019-03-17T21:17:35.828Z,87.30
2019-03-17T21:20:05.711Z,87.20
2019-03-17T21:22:35.087Z,87.10
2019-03-17T21:25:04.679Z,87.00
2019-03-17T21:27:34.061Z,87.00
2019-03-17T21:30:03.479Z,86.80
2019-03-17T21:32:32.852Z,86.70
2019-03-17T21:35:02.267Z,86.70
2019-03-17T21:37:31.683Z,86.90
2019-03-17T21:40:01.351Z,86.80
2019-03-17T21:42:30.721Z,87.00
2019-03-17T21:45:00.286Z,87.20
2019-03-17T21:47:29.979Z,87.40
2019-03-17T21:49:59.349Z,87.30
2019-03-17T21:52:28.778Z,87.70
2019-03-17T21:54:58.211Z,87.50
2019-03-17T21:57:27.561Z,87.90
2019-03-17T21:59:56.961Z,87.90
2019-03-17T22:02:26.363Z,88.10
2019-03-17T22:04:55.763Z,88.10
2019-03-17T22:07:25.175Z,88.10
2019-03-17T22:09:55.197Z,88.40
2019-03-17T22:12:24.614Z,88.40
2019-03-17T22:14:53.932Z,88.40
2019-03-17T22:17:23.349Z,88.40
2019-03-17T22:19:52.739Z,88.50
2019-03-17T22:22:22.161Z,89.10
2019-03-17T22:24:51.556Z,88.40
2019-03-17T22:27:20.934Z,88.60
2019-03-17T22:29:50.261Z,88.60
2019-03-17T22:32:19.648Z,88.40
2019-03-17T22:34:49.089Z,88.20
2019-03-17T22:37:18.468Z,88.10
2019-03-17T22:39:47.851Z,88.20
2019-03-17T22:42:17.260Z,87.90
2019-03-17T22:44:46.626Z,88.10
2019-03-17T22:47:15.956Z,88.00
2019-03-17T22:49:45.323Z,87.80
2019-03-17T22:52:14.832Z,88.00
2019-03-17T22:54:44.202Z,88.10
2019-03-17T22:57:13.551Z,88.10
2019-03-17T22:59:42.969Z,88.20
2019-03-17T23:02:12.405Z,88.20
2019-03-17T23:04:41.805Z,88.90
2019-03-17T23:07:11.179Z,88.30
2019-03-17T23:09:40.594Z,88.00
2019-03-17T23:12:09.956Z,88.00
2019-03-17T23:14:39.341Z,87.90
2019-03-17T23:17:08.740Z,87.80
2019-03-17T23:19:38.135Z,87.50
2019-03-17T23:22:07.707Z,87.30
2019-03-17T23:24:37.116Z,87.10
2019-03-17T23:27:06.511Z,87.10
2019-03-17T23:29:35.906Z,87.10
2019-03-17T23:32:05.417Z,87.10
2019-03-17T23:34:34.815Z,86.90
2019-03-17T23:37:04.197Z,86.70
2019-03-17T23:39:33.628Z,86.60
2019-03-17T23:42:02.999Z,86.60
2019-03-17T23:44:32.383Z,86.50
2019-03-17T23:47:01.773Z,86.30
2019-03-17T23:49:31.155Z,86.30
2019-03-17T23:52:00.559Z,86.30
2019-03-17T23:54:29.929Z,86.20
2019-03-17T23:56:59.376Z,86.30
2019-03-17T23:59:28.815Z,86.10
